createdAt,value
2022-10-03T00:01:35.618Z,10.10
2022-10-03T00:04:11.345Z,10.10
2022-10-03T00:06:54.909Z,10.00
2022-10-03T00:09:27.277Z,10.00
2022-10-03T00:12:09.617Z,10.00
2022-10-03T00:15:13.934Z,10.00
2022-10-03T00:18:19.165Z,10.00
2022-10-03T00:21:15.834Z,10.00
2022-10-03T00:24:01.395Z,10.10
2022-10-03T00:26:42.106Z,10.10
2022-10-03T00:29:30.326Z,10.10
2022-10-03T00:32:43.212Z,10.10
2022-10-03T00:35:24.078Z,10.00
2022-10-03T00:38:02.566Z,10.00
2022-10-03T00:41:17.009Z,9.90
2022-10-03T00:43:56.034Z,9.90
2022-10-03T00:46:28.917Z,9.90
2022-10-03T00:49:20.899Z,9.90
2022-10-03T00:52:47.838Z,9.70
2022-10-03T00:55:37.080Z,9.70
2022-10-03T00:58:22.298Z,9.60
2022-10-03T01:00:55.578Z,9.60
2022-10-03T01:03:28.392Z,9.60
2022-10-03T01:06:19.517Z,9.60
2022-10-03T01:08:52.684Z,9.50
2022-10-03T01:11:36.957Z,9.60
2022-10-03T01:14:34.720Z,9.70
2022-10-03T01:17:07.951Z,9.60
2022-10-03T01:19:58.907Z,9.60
2022-10-03T01:22:43.654Z,9.60
2022-10-03T01:25:38.070Z,9.60
2022-10-03T01:28:26.314Z,9.60
2022-10-03T01:31:00.734Z,9.60
2022-10-03T01:33:54.128Z,9.60
2022-10-03T01:37:12.145Z,9.60
2022-10-03T01:39:54.510Z,9.70
2022-10-03T01:42:37.590Z,9.60
2022-10-03T01:45:23.444Z,9.60
2022-10-03T01:47:57.316Z,9.60
2022-10-03T01:50:59.414Z,9.60
2022-10-03T01:53:41.783Z,9.50
2022-10-03T01:56:19.174Z,9.50
2022-10-03T01:58:58.656Z,9.50
2022-10-03T02:01:31.020Z,9.50
2022-10-03T02:04:14.401Z,9.50
2022-10-03T02:07:05.723Z,9.40
2022-10-03T02:09:51.273Z,9.50
2022-10-03T02:12:41.366Z,9.40
2022-10-03T02:15:15.826Z,9.40
2022-10-03T02:18:00.398Z,9.50
2022-10-03T02:20:54.184Z,9.60
2022-10-03T02:23:32.829Z,9.60
2022-10-03T02:26:23.799Z,9.50
2022-10-03T02:29:08.199Z,9.60
2022-10-03T02:31:57.251Z,9.50
2022-10-03T02:34:56.561Z,9.50
2022-10-03T02:37:37.593Z,9.60
2022-10-03T02:40:18.425Z,9.60
2022-10-03T02:43:19.344Z,9.50
2022-10-03T02:45:58.286Z,9.50
2022-10-03T02:48:43.576Z,9.50
2022-10-03T02:51:33.464Z,9.50
2022-10-03T02:54:25.582Z,9.50
2022-10-03T02:57:30.053Z,9.60
2022-10-03T03:00:22.495Z,9.60
2022-10-03T03:03:11.070Z,9.60
2022-10-03T03:06:00.018Z,9.50
2022-10-03T03:09:02.961Z,9.50
2022-10-03T03:12:06.359Z,9.60
2022-10-03T03:14:39.182Z,9.60
2022-10-03T03:17:26.712Z,9.50
2022-10-03T03:20:12.142Z,9.40
2022-10-03T03:23:14.069Z,9.50
2022-10-03T03:25:55.784Z,9.50
2022-10-03T03:28:51.482Z,9.50
2022-10-03T03:31:48.497Z,9.50
2022-10-03T03:34:22.230Z,9.40
2022-10-03T03:37:12.441Z,9.50
2022-10-03T03:40:29.597Z,9.50
2022-10-03T03:43:04.185Z,9.50
2022-10-03T03:45:40.454Z,9.60
2022-10-03T03:48:39.713Z,9.60
2022-10-03T03:51:23.158Z,9.50
2022-10-03T03:54:12.314Z,9.50
2022-10-03T03:57:16.718Z,9.50
2022-10-03T04:00:12.877Z,9.40
2022-10-03T04:02:42.754Z,9.40
2022-10-03T04:05:28.720Z,9.40
2022-10-03T04:08:18.804Z,9.30
2022-10-03T04:11:04.551Z,9.30
2022-10-03T04:14:08.936Z,9.40
2022-10-03T04:17:17.757Z,9.40
2022-10-03T04:20:09.820Z,9.40
2022-10-03T04:23:03.444Z,9.40
2022-10-03T04:25:55.218Z,9.40
2022-10-03T04:28:34.429Z,9.40
2022-10-03T04:31:16.754Z,9.40
2022-10-03T04:33:55.843Z,9.40
2022-10-03T04:36:28.394Z,9.40
2022-10-03T04:39:17.737Z,9.40
2022-10-03T04:41:54.823Z,9.30
2022-10-03T04:45:14.291Z,9.20
2022-10-03T04:47:52.989Z,9.30
2022-10-03T04:50:38.086Z,9.30
2022-10-03T04:53:46.133Z,9.20
2022-10-03T04:56:22.144Z,9.10
2022-10-03T04:58:50.897Z,9.20
2022-10-03T05:01:47.298Z,9.20
2022-10-03T05:04:31.569Z,9.20
2022-10-03T05:07:25.466Z,9.20
2022-10-03T05:09:57.135Z,9.30
2022-10-03T05:12:42.905Z,9.40
2022-10-03T05:15:26.199Z,9.40
2022-10-03T05:18:23.332Z,9.50
2022-10-03T05:20:57.481Z,9.60
2022-10-03T05:23:31.367Z,9.60
2022-10-03T05:26:24.718Z,9.70
2022-10-03T05:29:15.595Z,9.70
2022-10-03T05:31:45.041Z,9.70
2022-10-03T05:34:52.277Z,9.70
2022-10-03T05:37:56.951Z,9.80
2022-10-03T05:40:34.415Z,9.80
2022-10-03T05:43:43.357Z,9.80
2022-10-03T05:46:31.693Z,9.90
2022-10-03T05:49:23.704Z,9.90
2022-10-03T05:52:16.347Z,9.90
2022-10-03T05:55:12.774Z,10.00
2022-10-03T05:58:11.128Z,10.00
2022-10-03T06:01:00.620Z,10.10
2022-10-03T06:03:45.686Z,10.10
2022-10-03T06:06:21.111Z,10.10
2022-10-03T06:09:10.794Z,10.10
2022-10-03T06:12:02.161Z,10.20
2022-10-03T06:14:50.006Z,10.20
2022-10-03T06:17:39.796Z,10.30
2022-10-03T06:20:30.263Z,10.40
2022-10-03T06:23:37.464Z,10.40
2022-10-03T06:26:22.989Z,10.40
2022-10-03T06:29:14.744Z,10.50
2022-10-03T06:31:49.333Z,10.50
2022-10-03T06:34:34.668Z,10.50
2022-10-03T06:37:47.527Z,10.60
2022-10-03T06:40:41.692Z,10.60
2022-10-03T06:43:31.058Z,10.70
2022-10-03T06:46:36.602Z,10.70
2022-10-03T06:49:21.835Z,10.80
2022-10-03T06:52:16.667Z,10.80
2022-10-03T06:55:04.409Z,10.90
2022-10-03T06:57:43.553Z,11.00
2022-10-03T07:00:40.632Z,11.10
2022-10-03T07:03:19.419Z,11.20
2022-10-03T07:05:55.315Z,11.40
2022-10-03T07:09:00.341Z,11.50
2022-10-03T07:11:43.089Z,11.50
2022-10-03T07:14:35.371Z,11.50
2022-10-03T07:17:44.517Z,11.60
2022-10-03T07:20:26.193Z,11.60
2022-10-03T07:23:29.858Z,11.50
2022-10-03T07:25:59.518Z,11.60
2022-10-03T07:28:42.651Z,11.70
2022-10-03T07:31:12.429Z,11.80
2022-10-03T07:34:01.190Z,11.80
2022-10-03T07:37:09.890Z,11.90
2022-10-03T07:40:01.495Z,12.00
2022-10-03T07:42:46.982Z,12.20
2022-10-03T07:45:41.270Z,12.20
2022-10-03T07:48:32.799Z,12.30
2022-10-03T07:51:38.224Z,12.40
2022-10-03T07:54:14.183Z,12.40
2022-10-03T07:56:49.706Z,12.40
2022-10-03T07:59:34.757Z,12.50
2022-10-03T08:02:17.048Z,12.60
2022-10-03T08:05:07.065Z,12.50
2022-10-03T08:07:40.127Z,12.60
2022-10-03T08:10:29.365Z,12.80
2022-10-03T08:13:53.866Z,12.90
2022-10-03T08:16:31.427Z,12.80
2022-10-03T08:19:42.136Z,12.90
2022-10-03T08:22:53.761Z,13.00
2022-10-03T08:25:54.104Z,13.10
2022-10-03T08:28:38.633Z,13.00
2022-10-03T08:31:25.550Z,13.00
2022-10-03T08:34:34.622Z,13.00
2022-10-03T08:37:20.088Z,13.00
2022-10-03T08:39:52.311Z,13.00
2022-10-03T08:43:13.713Z,13.00
2022-10-03T08:45:54.509Z,13.00
2022-10-03T08:48:30.425Z,13.10
2022-10-03T08:51:04.896Z,13.20
2022-10-03T08:54:01.473Z,13.10
2022-10-03T08:56:45.218Z,13.20
2022-10-03T08:59:38.793Z,13.30
2022-10-03T09:02:11.848Z,13.40
2022-10-03T09:04:54.159Z,13.40
2022-10-03T09:07:40.831Z,13.40
2022-10-03T09:10:37.058Z,13.50
2022-10-03T09:13:31.406Z,13.70
2022-10-03T09:16:11.891Z,14.00
2022-10-03T09:19:12.137Z,13.90
2022-10-03T09:21:44.895Z,13.90
2022-10-03T09:24:15.325Z,14.10
2022-10-03T09:27:18.368Z,14.20
2022-10-03T09:30:04.008Z,14.40
2022-10-03T09:32:58.776Z,14.40
2022-10-03T09:35:25.704Z,14.70
2022-10-03T09:38:08.390Z,14.80
2022-10-03T09:41:02.883Z,14.90
2022-10-03T09:43:57.529Z,14.90
2022-10-03T09:47:15.661Z,14.90
2022-10-03T09:49:57.619Z,14.60
2022-10-03T09:52:45.250Z,14.70
2022-10-03T09:55:39.122Z,14.80
2022-10-03T09:58:46.869Z,14.90
2022-10-03T10:01:31.059Z,14.80
2022-10-03T10:04:24.740Z,14.80
2022-10-03T10:07:44.659Z,14.70
2022-10-03T10:10:51.097Z,14.80
2022-10-03T10:14:03.183Z,14.90
2022-10-03T10:16:44.569Z,15.10
2022-10-03T10:19:38.343Z,15.00
2022-10-03T10:22:42.020Z,15.00
2022-10-03T10:25:33.946Z,15.00
2022-10-03T10:28:38.272Z,14.90
2022-10-03T10:31:29.632Z,15.00
2022-10-03T10:34:22.798Z,15.10
2022-10-03T10:37:33.091Z,15.50
2022-10-03T10:40:14.998Z,16.20
2022-10-03T10:43:26.105Z,16.60
2022-10-03T10:45:59.019Z,17.10
2022-10-03T10:48:31.496Z,17.60
2022-10-03T10:51:20.078Z,17.50
2022-10-03T10:54:24.552Z,17.00
2022-10-03T10:57:19.388Z,16.90
2022-10-03T11:00:01.398Z,17.30
2022-10-03T11:03:16.909Z,16.90
2022-10-03T11:06:22.444Z,16.40
2022-10-03T11:08:55.097Z,16.40
2022-10-03T11:11:41.851Z,16.30
2022-10-03T11:14:30.709Z,16.60
2022-10-03T11:17:16.378Z,17.10
2022-10-03T11:20:17.828Z,17.10
2022-10-03T11:22:50.954Z,16.80
2022-10-03T11:25:51.146Z,17.10
2022-10-03T11:28:43.024Z,17.00
2022-10-03T11:31:40.679Z,17.80
2022-10-03T11:34:45.415Z,17.80
2022-10-03T11:37:21.106Z,17.90
2022-10-03T11:40:07.672Z,18.20
2022-10-03T11:42:56.136Z,18.30
2022-10-03T11:45:50.610Z,18.50
2022-10-03T11:48:59.098Z,18.40
2022-10-03T11:51:43.803Z,18.30
2022-10-03T11:54:30.507Z,18.60
2022-10-03T11:57:09.923Z,18.00
2022-10-03T11:59:55.210Z,18.20
2022-10-03T12:02:34.741Z,18.60
2022-10-03T12:05:07.744Z,19.20
2022-10-03T12:08:07.829Z,19.10
2022-10-03T12:10:44.271Z,18.50
2022-10-03T12:13:17.205Z,18.50
2022-10-03T12:15:55.316Z,18.50
2022-10-03T12:18:40.952Z,18.10
2022-10-03T12:21:37.733Z,19.00
2022-10-03T12:24:27.232Z,19.30
2022-10-03T12:27:13.124Z,19.30
2022-10-03T12:29:45.845Z,19.60
2022-10-03T12:32:25.874Z,20.20
2022-10-03T12:35:07.977Z,19.50
2022-10-03T12:37:44.424Z,20.30
2022-10-03T12:40:23.781Z,19.70
2022-10-03T12:43:09.435Z,19.00
2022-10-03T12:45:55.660Z,18.70
2022-10-03T12:48:34.274Z,18.30
2022-10-03T12:51:17.990Z,17.70
2022-10-03T12:53:47.658Z,17.60
2022-10-03T12:56:21.654Z,17.30
2022-10-03T12:59:17.421Z,17.30
2022-10-03T13:02:36.643Z,17.20
2022-10-03T13:05:40.640Z,16.80
2022-10-03T13:08:38.527Z,16.80
2022-10-03T13:11:27.318Z,17.00
2022-10-03T13:14:26.274Z,17.40
2022-10-03T13:17:00.400Z,17.40
2022-10-03T13:19:40.131Z,17.20
2022-10-03T13:22:29.052Z,17.10
2022-10-03T13:24:58.704Z,16.90
2022-10-03T13:27:40.729Z,17.00
2022-10-03T13:30:24.589Z,17.10
2022-10-03T13:33:08.731Z,16.90
2022-10-03T13:35:58.485Z,16.80
2022-10-03T13:38:47.442Z,16.70
2022-10-03T13:41:29.048Z,16.70
2022-10-03T13:44:14.717Z,16.60
2022-10-03T13:47:07.469Z,16.60
2022-10-03T13:49:51.526Z,16.30
2022-10-03T13:52:31.534Z,16.30
2022-10-03T13:55:19.702Z,16.40
2022-10-03T13:58:41.603Z,16.50
2022-10-03T14:01:27.259Z,16.70
2022-10-03T14:03:57.000Z,16.90
2022-10-03T14:06:36.672Z,17.00
2022-10-03T14:09:29.162Z,17.10
2022-10-03T14:12:28.265Z,17.00
2022-10-03T14:15:24.768Z,17.00
2022-10-03T14:18:13.667Z,17.10
2022-10-03T14:20:56.423Z,17.50
2022-10-03T14:23:26.783Z,17.30
2022-10-03T14:26:04.966Z,17.60
2022-10-03T14:28:43.337Z,18.10
2022-10-03T14:31:20.979Z,18.60
2022-10-03T14:34:04.752Z,18.30
2022-10-03T14:36:44.889Z,18.00
2022-10-03T14:39:49.502Z,17.80
2022-10-03T14:42:24.196Z,18.10
2022-10-03T14:45:07.954Z,18.50
2022-10-03T14:47:37.920Z,18.50
2022-10-03T14:50:05.568Z,18.30
2022-10-03T14:53:02.548Z,18.30
2022-10-03T14:55:39.789Z,18.40
2022-10-03T14:58:29.546Z,18.20
2022-10-03T15:01:20.130Z,18.20
2022-10-03T15:04:22.285Z,17.50
2022-10-03T15:06:55.950Z,17.40
2022-10-03T15:09:33.422Z,17.00
2022-10-03T15:12:07.326Z,16.70
2022-10-03T15:14:43.153Z,16.50
2022-10-03T15:17:29.783Z,16.40
2022-10-03T15:19:59.040Z,16.30
2022-10-03T15:22:33.473Z,16.30
2022-10-03T15:25:26.384Z,16.30
2022-10-03T15:27:55.574Z,16.20
2022-10-03T15:30:31.751Z,16.10
2022-10-03T15:33:14.137Z,15.90
2022-10-03T15:35:44.132Z,15.60
2022-10-03T15:38:40.970Z,15.40
2022-10-03T15:41:13.049Z,15.20
2022-10-03T15:43:58.020Z,15.00
2022-10-03T15:46:39.243Z,14.90
2022-10-03T15:49:16.119Z,14.80
2022-10-03T15:51:44.564Z,14.80
2022-10-03T15:54:26.007Z,14.70
2022-10-03T15:56:57.036Z,14.70
2022-10-03T15:59:34.607Z,14.60
2022-10-03T16:02:12.645Z,14.50
2022-10-03T16:04:42.258Z,14.40
2022-10-03T16:07:12.231Z,14.40
2022-10-03T16:09:53.339Z,14.40
2022-10-03T16:12:20.207Z,14.30
2022-10-03T16:14:57.109Z,14.30
2022-10-03T16:17:37.743Z,14.30
2022-10-03T16:20:15.212Z,14.30
2022-10-03T16:22:55.439Z,14.20
2022-10-03T16:25:29.268Z,14.10
2022-10-03T16:28:04.810Z,14.10
2022-10-03T16:30:43.908Z,14.00
2022-10-03T16:33:19.714Z,13.90
2022-10-03T16:35:55.609Z,13.80
2022-10-03T16:38:45.195Z,13.80
2022-10-03T16:41:31.883Z,13.70
2022-10-03T16:44:03.515Z,13.70
2022-10-03T16:46:39.350Z,13.60
2022-10-03T16:49:44.106Z,13.50
2022-10-03T16:52:13.976Z,13.40
2022-10-03T16:54:41.491Z,13.30
2022-10-03T16:57:20.636Z,13.30
2022-10-03T16:59:52.141Z,13.10
2022-10-03T17:02:28.066Z,13.10
2022-10-03T17:05:09.904Z,13.00
2022-10-03T17:08:06.655Z,13.00
2022-10-03T17:10:47.472Z,12.90
2022-10-03T17:13:27.297Z,12.80
2022-10-03T17:16:12.990Z,12.70
2022-10-03T17:18:59.685Z,12.70
2022-10-03T17:21:28.976Z,12.70
2022-10-03T17:24:08.036Z,12.70
2022-10-03T17:26:44.255Z,12.70
2022-10-03T17:29:19.367Z,12.70
2022-10-03T17:32:14.305Z,12.70
2022-10-03T17:34:47.897Z,12.70
2022-10-03T17:37:47.934Z,12.70
2022-10-03T17:40:33.203Z,12.70
2022-10-03T17:43:11.122Z,12.60
2022-10-03T17:45:46.970Z,12.60
2022-10-03T17:48:26.093Z,12.50
2022-10-03T17:51:10.350Z,12.50
2022-10-03T17:53:38.431Z,12.50
2022-10-03T17:56:11.146Z,12.40
2022-10-03T17:58:44.086Z,12.30
2022-10-03T18:01:18.909Z,12.30
2022-10-03T18:04:02.138Z,12.30
2022-10-03T18:06:59.469Z,12.20
2022-10-03T18:09:41.599Z,12.10
2022-10-03T18:12:42.682Z,12.00
2022-10-03T18:15:27.866Z,11.90
2022-10-03T18:17:55.134Z,11.90
2022-10-03T18:20:34.658Z,11.80
2022-10-03T18:23:08.656Z,11.80
2022-10-03T18:26:19.472Z,11.70
2022-10-03T18:29:11.587Z,11.70
2022-10-03T18:31:47.401Z,11.60
2022-10-03T18:34:22.835Z,11.60
2022-10-03T18:36:54.051Z,11.50
2022-10-03T18:39:32.190Z,11.60
2022-10-03T18:42:02.490Z,11.60
2022-10-03T18:44:33.182Z,11.60
2022-10-03T18:47:39.638Z,11.60
2022-10-03T18:50:27.078Z,11.50
2022-10-03T18:52:56.966Z,11.40
2022-10-03T18:55:27.067Z,11.30
2022-10-03T18:58:13.370Z,11.30
2022-10-03T19:01:08.548Z,11.20
2022-10-03T19:04:04.067Z,11.20
2022-10-03T19:06:37.823Z,11.00
2022-10-03T19:09:23.539Z,10.80
2022-10-03T19:11:56.931Z,10.80
2022-10-03T19:14:41.203Z,10.70
2022-10-03T19:17:21.527Z,10.70
2022-10-03T19:19:58.835Z,10.60
2022-10-03T19:22:39.218Z,10.50
2022-10-03T19:25:13.974Z,10.40
2022-10-03T19:27:52.850Z,10.20
2022-10-03T19:30:25.594Z,10.10
2022-10-03T19:33:06.397Z,9.90
2022-10-03T19:35:38.533Z,9.80
2022-10-03T19:38:40.477Z,9.60
2022-10-03T19:41:23.264Z,9.40
2022-10-03T19:43:50.993Z,9.30
2022-10-03T19:46:32.808Z,9.20
2022-10-03T19:49:18.453Z,9.10
2022-10-03T19:51:45.992Z,9.10
2022-10-03T19:54:26.857Z,9.00
2022-10-03T19:56:54.870Z,9.00
2022-10-03T19:59:37.834Z,8.90
2022-10-03T20:02:07.279Z,8.90
2022-10-03T20:04:36.926Z,8.80
2022-10-03T20:07:19.270Z,8.80
2022-10-03T20:09:58.221Z,8.80
2022-10-03T20:12:28.857Z,8.70
2022-10-03T20:15:02.153Z,8.90
2022-10-03T20:17:30.369Z,8.90
2022-10-03T20:20:04.828Z,8.90
2022-10-03T20:22:36.673Z,8.80
2022-10-03T20:25:08.181Z,8.80
2022-10-03T20:27:43.206Z,8.80
2022-10-03T20:30:43.462Z,8.90
2022-10-03T20:33:30.790Z,8.80
2022-10-03T20:36:19.295Z,8.80
2022-10-03T20:39:04.881Z,8.70
2022-10-03T20:41:53.954Z,8.60
2022-10-03T20:44:43.762Z,8.60
2022-10-03T20:47:30.746Z,8.70
2022-10-03T20:50:23.388Z,8.60
2022-10-03T20:52:57.804Z,8.60
2022-10-03T20:55:29.252Z,8.60
2022-10-03T20:58:05.651Z,8.60
2022-10-03T21:00:41.078Z,8.60
2022-10-03T21:03:25.932Z,8.60
2022-10-03T21:05:55.547Z,8.70
2022-10-03T21:08:40.916Z,8.60
2022-10-03T21:11:10.850Z,8.60
2022-10-03T21:13:43.840Z,8.50
2022-10-03T21:16:22.022Z,8.50
2022-10-03T21:18:51.017Z,8.50
2022-10-03T21:21:27.881Z,8.50
2022-10-03T21:24:31.965Z,8.50
2022-10-03T21:27:14.612Z,8.30
2022-10-03T21:29:56.877Z,8.20
2022-10-03T21:32:26.715Z,8.20
2022-10-03T21:35:18.993Z,8.20
2022-10-03T21:38:04.357Z,8.20
2022-10-03T21:40:40.079Z,8.30
2022-10-03T21:43:39.459Z,8.40
2022-10-03T21:46:27.361Z,8.20
2022-10-03T21:48:54.444Z,8.10
2022-10-03T21:51:29.034Z,8.10
2022-10-03T21:54:14.371Z,8.10
2022-10-03T21:56:59.507Z,8.00
2022-10-03T21:59:46.252Z,8.10
2022-10-03T22:02:19.188Z,8.00
2022-10-03T22:04:54.090Z,8.00
2022-10-03T22:07:38.386Z,7.90
2022-10-03T22:10:21.624Z,7.90
2022-10-03T22:12:52.439Z,8.00
2022-10-03T22:15:27.098Z,7.90
2022-10-03T22:18:11.130Z,7.80
2022-10-03T22:20:54.445Z,7.90
2022-10-03T22:23:24.324Z,7.80
2022-10-03T22:26:15.413Z,7.80
2022-10-03T22:29:04.816Z,7.70
2022-10-03T22:31:31.748Z,7.60
2022-10-03T22:34:36.213Z,7.70
2022-10-03T22:37:03.863Z,7.80
2022-10-03T22:39:33.946Z,7.90
2022-10-03T22:42:02.501Z,7.90
2022-10-03T22:44:38.043Z,8.00
2022-10-03T22:47:12.382Z,7.90
2022-10-03T22:49:42.067Z,8.10
2022-10-03T22:52:24.310Z,8.30
2022-10-03T22:54:52.319Z,8.30
2022-10-03T22:57:19.868Z,8.20
2022-10-03T23:00:04.170Z,8.10
2022-10-03T23:02:35.114Z,8.20
2022-10-03T23:05:07.398Z,8.00
2022-10-03T23:08:02.136Z,8.00
2022-10-03T23:10:54.959Z,7.90
2022-10-03T23:13:28.010Z,7.90
2022-10-03T23:16:04.879Z,7.80
2022-10-03T23:18:50.478Z,7.80
2022-10-03T23:21:17.582Z,7.90
2022-10-03T23:24:07.384Z,8.00
2022-10-03T23:26:34.234Z,8.10
2022-10-03T23:29:12.126Z,8.20
2022-10-03T23:32:01.220Z,8.40
2022-10-03T23:34:40.031Z,8.40
2022-10-03T23:37:16.176Z,8.60
2022-10-03T23:39:43.018Z,8.90
2022-10-03T23:42:18.418Z,9.10
2022-10-03T23:45:03.028Z,8.80
2022-10-03T23:47:34.158Z,8.60
2022-10-03T23:50:04.372Z,8.40
2022-10-03T23:52:42.351Z,8.40
2022-10-03T23:55:09.906Z,8.50
2022-10-03T23:57:41.570Z,8.60
